Time,TemperatureF,DewpointF,PressureIn,WindDirection,WindDirectionDegrees,WindSpeedMPH,WindSpeedGustMPH,Humidity,HourlyPrecipIn,Conditions,Clouds,dailyrainin,SoftwareType,DateUTC
2013-01-22 06:30:00,9.0,4.6,30.30,WSW,247,1.0,1.0,82,0.00,,,-99.99,Weather View 32 v60,2013-01-22 11:30:00,
2013-01-22 06:35:00,9.0,4.4,30.30,West,270,4.0,6.0,81,0.00,,,-99.99,Weather View 32 v60,2013-01-22 11:35:00,
2013-01-22 06:40:00,9.0,4.1,30.30,West,270,0.0,7.0,80,0.00,,,-99.99,Weather View 32 v60,2013-01-22 11:40:00,
2013-01-22 06:45:00,9.0,4.1,30.30,WSW,247,0.0,7.0,80,0.00,,,-99.99,Weather View 32 v60,2013-01-22 11:45:00,
2013-01-22 06:50:00,9.0,4.1,30.30,NNW,337,0.0,7.0,80,0.00,,,-99.99,Weather View 32 v60,2013-01-22 11:50:00,
2013-01-22 06:55:00,9.0,4.1,30.30,WNW,292,1.0,7.0,80,0.00,,,-99.99,Weather View 32 v60,2013-01-22 11:55:00,
2013-01-22 07:00:00,9.0,4.1,30.30,SW,225,0.0,7.0,80,0.00,,,-99.99,Weather View 32 v60,2013-01-22 12:00:00,
2013-01-22 07:05:00,9.0,4.1,30.30,WSW,247,0.0,7.0,80,0.00,,,-99.99,Weather View 32 v60,2013-01-22 12:05:00,
2013-01-22 07:10:00,9.0,3.8,30.31,West,270,0.0,7.0,79,0.00,,,-99.99,Weather View 32 v60,2013-01-22 12:10:00,
2013-01-22 07:15:00,9.0,4.1,30.31,West,270,1.0,7.0,80,0.00,,,-99.99,Weather View 32 v60,2013-01-22 12:15:00,
2013-01-22 07:20:00,9.0,4.4,30.31,WNW,292,0.0,7.0,81,0.00,,,-99.99,Weather View 32 v60,2013-01-22 12:20:00,
2013-01-22 07:25:00,10.0,4.8,30.31,West,270,0.0,7.0,79,0.00,,,-99.99,Weather View 32 v60,2013-01-22 12:25:00,
2013-01-22 07:30:00,10.0,4.8,30.32,WNW,292,0.0,7.0,79,0.00,,,-99.99,Weather View 32 v60,2013-01-22 12:30:00,
2013-01-22 07:35:00,11.0,5.8,30.32,NNW,337,0.0,7.0,79,0.00,,,-99.99,Weather View 32 v60,2013-01-22 12:35:00,
2013-01-22 07:40:00,12.0,5.6,30.31,West,270,3.0,5.0,75,0.00,,,-99.99,Weather View 32 v60,2013-01-22 12:40:00,
2013-01-22 07:45:00,13.0,6.3,30.31,WNW,292,0.0,5.0,74,0.00,,,-99.99,Weather View 32 v60,2013-01-22 12:45:00,
2013-01-22 07:50:00,12.0,4.7,30.30,WNW,292,1.0,5.0,72,0.00,,,-99.99,Weather View 32 v60,2013-01-22 12:50:00,
2013-01-22 07:55:00,11.0,4.6,30.30,West,270,1.0,5.0,75,0.00,,,-99.99,Weather View 32 v60,2013-01-22 12:55:00,
2013-01-22 08:00:00,11.0,4.9,30.31,West,270,2.0,5.0,76,0.00,,,-99.99,Weather View 32 v60,2013-01-22 13:00:00,
2013-01-22 08:05:00,12.0,5.3,30.31,West,270,2.0,7.0,74,0.00,,,-99.99,Weather View 32 v60,2013-01-22 13:05:00,
2013-01-22 08:10:00,13.0,6.0,30.31,NW,315,0.0,7.0,73,0.00,,,-99.99,Weather View 32 v60,2013-01-22 13:10:00,
2013-01-22 08:15:00,14.0,6.0,30.31,West,270,0.0,7.0,70,0.00,,,-99.99,Weather View 32 v60,2013-01-22 13:15:00,
2013-01-22 08:20:00,15.0,6.7,30.31,West,270,0.0,7.0,69,0.00,,,-99.99,Weather View 32 v60,2013-01-22 13:20:00,
2013-01-22 08:25:00,16.0,7.0,30.31,West,270,3.0,7.0,67,0.00,,,-99.99,Weather View 32 v60,2013-01-22 13:25:00,
2013-01-22 08:30:00,16.0,7.0,30.30,West,270,3.0,7.0,67,0.00,,,-99.99,Weather View 32 v60,2013-01-22 13:30:00,
2013-01-22 08:35:00,16.0,5.3,30.30,WNW,292,2.0,7.0,62,0.00,,,-99.99,Weather View 32 v60,2013-01-22 13:35:00,
2013-01-22 08:40:00,16.0,5.3,30.30,West,270,0.0,7.0,62,0.00,,,-99.99,Weather View 32 v60,2013-01-22 13:40:00,
2013-01-22 08:45:00,16.0,5.3,30.30,North,360,0.0,7.0,62,0.00,,,-99.99,Weather View 32 v60,2013-01-22 13:45:00,
2013-01-22 08:50:00,17.0,4.4,30.30,WSW,247,0.0,7.0,57,0.00,,,-99.99,Weather View 32 v60,2013-01-22 13:50:00,
2013-01-22 08:55:00,16.0,3.8,30.30,North,360,1.0,13.0,58,0.00,,,-99.99,Weather View 32 v60,2013-01-22 13:55:00,
2013-01-22 09:00:00,16.0,3.8,30.31,WNW,292,1.0,13.0,58,0.00,,,-99.99,Weather View 32 v60,2013-01-22 14:00:00,
2013-01-22 09:05:00,17.0,3.6,30.31,NNW,337,3.0,13.0,55,0.00,,,-99.99,Weather View 32 v60,2013-01-22 14:05:00,
2013-01-22 09:10:00,16.0,3.8,30.30,North,360,4.0,13.0,58,0.00,,,-99.99,Weather View 32 v60,2013-01-22 14:10:00,
2013-01-22 09:15:00,17.0,3.6,30.30,WNW,292,5.0,13.0,55,0.00,,,-99.99,Weather View 32 v60,2013-01-22 14:15:00,
2013-01-22 09:20:00,17.0,2.8,30.30,West,270,3.0,13.0,53,0.00,,,-99.99,Weather View 32 v60,2013-01-22 14:20:00,
2013-01-22 09:25:00,17.0,2.4,30.30,WNW,292,5.0,13.0,52,0.00,,,-99.99,Weather View 32 v60,2013-01-22 14:25:00,
2013-01-22 09:30:00,17.0,2.4,30.31,SW,225,4.0,13.0,52,0.00,,,-99.99,Weather View 32 v60,2013-01-22 14:30:00,
2013-01-22 09:35:00,16.0,1.9,30.31,WSW,247,3.0,13.0,53,0.00,,,-99.99,Weather View 32 v60,2013-01-22 14:35:00,
2013-01-22 09:40:00,16.0,1.9,30.32,WSW,247,2.0,13.0,53,0.00,,,-99.99,Weather View 32 v60,2013-01-22 14:40:00,
2013-01-22 09:45:00,16.0,1.1,30.32,NNW,337,0.0,13.0,51,0.00,,,-99.99,Weather View 32 v60,2013-01-22 14:45:00,
2013-01-22 09:50:00,17.0,2.0,30.32,SW,225,0.0,13.0,51,0.00,,,-99.99,Weather View 32 v60,2013-01-22 14:50:00,
2013-01-22 09:55:00,17.0,1.1,30.32,WNW,292,0.0,10.0,49,0.00,,,-99.99,Weather View 32 v60,2013-01-22 14:55:00,
2013-01-22 10:00:00,17.0,1.6,30.32,West,270,4.0,10.0,50,0.00,,,-99.99,Weather View 32 v60,2013-01-22 15:00:00,
2013-01-22 10:05:00,18.0,2.1,30.32,West,270,0.0,10.0,49,0.00,,,-99.99,Weather View 32 v60,2013-01-22 15:05:00,
2013-01-22 10:10:00,18.0,1.6,30.32,WSW,247,1.0,10.0,48,0.00,,,-99.99,Weather View 32 v60,2013-01-22 15:10:00,
2013-01-22 10:15:00,18.0,2.1,30.32,WNW,292,1.0,10.0,49,0.00,,,-99.99,Weather View 32 v60,2013-01-22 15:15:00,
2013-01-22 10:20:00,19.0,2.5,30.32,West,270,4.0,10.0,48,0.00,,,-99.99,Weather View 32 v60,2013-01-22 15:20:00,
2013-01-22 10:25:00,18.0,2.1,30.32,WSW,247,6.0,11.0,49,0.00,,,-99.99,Weather View 32 v60,2013-01-22 15:25:00,
2013-01-22 10:30:00,19.0,3.4,30.32,WSW,247,3.0,11.0,50,0.00,,,-99.99,Weather View 32 v60,2013-01-22 15:30:00,
2013-01-22 10:35:00,19.0,2.5,30.32,NW,315,4.0,11.0,48,0.00,,,-99.99,Weather View 32 v60,2013-01-22 15:35:00,
2013-01-22 10:40:00,19.0,2.5,30.31,West,270,6.0,14.0,48,0.00,,,-99.99,Weather View 32 v60,2013-01-22 15:40:00,
2013-01-22 10:45:00,18.0,2.1,30.31,West,270,2.0,14.0,49,0.00,,,-99.99,Weather View 32 v60,2013-01-22 15:45:00,
2013-01-22 10:50:00,18.0,2.1,30.30,WSW,247,0.0,14.0,49,0.00,,,-99.99,Weather View 32 v60,2013-01-22 15:50:00,
2013-01-22 10:55:00,18.0,2.1,30.30,WNW,292,1.0,14.0,49,0.00,,,-99.99,Weather View 32 v60,2013-01-22 15:55:00,
2013-01-22 11:00:00,19.0,2.5,30.31,WSW,247,5.0,14.0,48,0.00,,,-99.99,Weather View 32 v60,2013-01-22 16:00:00,
2013-01-22 11:05:00,17.0,1.6,30.31,WSW,247,4.0,14.0,50,0.00,,,-99.99,Weather View 32 v60,2013-01-22 16:05:00,
2013-01-22 11:10:00,18.0,2.1,30.30,WSW,247,4.0,14.0,49,0.00,,,-99.99,Weather View 32 v60,2013-01-22 16:10:00,
2013-01-22 11:15:00,19.0,2.5,30.30,SW,225,5.0,14.0,48,0.00,,,-99.99,Weather View 32 v60,2013-01-22 16:15:00,
2013-01-22 11:20:00,19.0,3.0,30.29,SW,225,3.0,14.0,49,0.00,,,-99.99,Weather View 32 v60,2013-01-22 16:20:00,
2013-01-22 11:30:00,19.0,0.7,30.29,West,270,3.0,14.0,44,0.00,,,-99.99,Weather View 32 v60,2013-01-22 16:30:00,
2013-01-22 11:35:00,19.0,2.5,30.29,SW,225,3.0,14.0,48,0.00,,,-99.99,Weather View 32 v60,2013-01-22 16:35:00,
2013-01-22 11:40:00,19.0,0.7,30.28,WSW,247,0.0,14.0,44,0.00,,,-99.99,Weather View 32 v60,2013-01-22 16:40:00,
2013-01-22 11:45:00,19.0,1.6,30.28,WSW,247,9.0,12.0,46,0.00,,,-99.99,Weather View 32 v60,2013-01-22 16:45:00,
2013-01-22 11:50:00,19.0,0.2,30.28,WSW,247,2.0,12.0,43,0.00,,,-99.99,Weather View 32 v60,2013-01-22 16:50:00,
2013-01-22 12:00:00,19.0,0.2,30.27,West,270,3.0,16.0,43,0.00,,,-99.99,Weather View 32 v60,2013-01-22 17:00:00,
2013-01-22 12:24:00,19.0,2.1,30.29,North,360,1.0,14.0,47,0.00,,,-99.99,Weather View 32 v60,2013-01-22 17:24:00,
2013-01-22 12:25:00,22.0,2.4,30.26,WSW,247,1.0,16.0,42,0.00,,,-99.99,Weather View 32 v60,2013-01-22 17:25:00,
2013-01-22 12:30:00,21.0,1.5,30.26,SW,225,1.0,16.0,42,0.00,,,-99.99,Weather View 32 v60,2013-01-22 17:30:00,
2013-01-22 12:54:00,19.0,0.2,30.28,WNW,292,0.0,16.0,43,0.00,,,-99.99,Weather View 32 v60,2013-01-22 17:54:00,
2013-01-22 12:55:00,21.0,2.0,30.25,WSW,247,4.0,13.0,43,0.00,,,-99.99,Weather View 32 v60,2013-01-22 17:55:00,
2013-01-22 13:04:00,20.0,1.1,30.27,SW,225,5.0,16.0,43,0.00,,,-99.99,Weather View 32 v60,2013-01-22 18:04:00,
2013-01-22 13:05:00,22.0,1.9,30.25,SW,225,0.0,13.0,41,0.00,,,-99.99,Weather View 32 v60,2013-01-22 18:05:00,
2013-01-22 13:09:00,20.0,1.1,30.27,West,270,4.0,16.0,43,0.00,,,-99.99,Weather View 32 v60,2013-01-22 18:09:00,
2013-01-22 13:15:00,21.0,2.5,30.25,West,270,0.0,13.0,44,0.00,,,-99.99,Weather View 32 v60,2013-01-22 18:15:00,
2013-01-22 13:19:00,21.0,2.0,30.26,North,360,0.0,16.0,43,0.00,,,-99.99,Weather View 32 v60,2013-01-22 18:19:00,
2013-01-22 13:29:00,21.0,1.5,30.26,SW,225,1.0,16.0,42,0.00,,,-99.99,Weather View 32 v60,2013-01-22 18:29:00,
2013-01-22 13:34:00,20.0,0.6,30.26,SW,225,8.0,16.0,42,0.00,,,-99.99,Weather View 32 v60,2013-01-22 18:34:00,
2013-01-22 13:35:00,22.0,1.4,30.23,SW,225,6.0,13.0,40,0.00,,,-99.99,Weather View 32 v60,2013-01-22 18:35:00,
2013-01-22 13:44:00,21.0,1.0,30.26,WSW,247,3.0,16.0,41,0.00,,,-99.99,Weather View 32 v60,2013-01-22 18:44:00,
2013-01-22 13:59:00,22.0,2.9,30.25,WSW,247,3.0,13.0,43,0.00,,,-99.99,Weather View 32 v60,2013-01-22 18:59:00,
2013-01-22 14:09:00,21.0,2.0,30.25,WSW,247,4.0,13.0,43,0.00,,,-99.99,Weather View 32 v60,2013-01-22 19:09:00,
2013-01-22 14:15:00,21.0,1.0,30.24,WSW,247,7.0,13.0,41,0.00,,,-99.99,Weather View 32 v60,2013-01-22 19:15:00,
2013-01-22 14:19:00,21.0,2.0,30.24,WSW,247,4.0,13.0,43,0.00,,,-99.99,Weather View 32 v60,2013-01-22 19:19:00,
2013-01-22 14:20:00,21.0,1.0,30.24,SW,225,4.0,13.0,41,0.00,,,-99.99,Weather View 32 v60,2013-01-22 19:20:00,
2013-01-22 14:29:00,21.0,2.0,30.23,SW,225,4.0,13.0,43,0.00,,,-99.99,Weather View 32 v60,2013-01-22 19:29:00,
2013-01-22 14:39:00,22.0,2.4,30.23,WSW,247,1.0,13.0,42,0.00,,,-99.99,Weather View 32 v60,2013-01-22 19:39:00,
2013-01-22 14:44:00,21.0,2.0,30.23,WSW,247,5.0,13.0,43,0.00,,,-99.99,Weather View 32 v60,2013-01-22 19:44:00,
2013-01-22 14:54:00,21.0,2.0,30.23,SW,225,6.0,13.0,43,0.00,,,-99.99,Weather View 32 v60,2013-01-22 19:54:00,
2013-01-22 15:04:00,21.0,2.0,30.23,West,270,3.0,13.0,43,0.00,,,-99.99,Weather View 32 v60,2013-01-22 20:04:00,
2013-01-22 15:09:00,21.0,1.5,30.24,WNW,292,3.0,13.0,42,0.00,,,-99.99,Weather View 32 v60,2013-01-22 20:09:00,
2013-01-22 15:24:00,21.0,1.0,30.24,West,270,6.0,13.0,41,0.00,,,-99.99,Weather View 32 v60,2013-01-22 20:24:00,
2013-01-22 15:29:00,20.0,0.6,30.24,WSW,247,0.0,12.0,42,0.00,,,-99.99,Weather View 32 v60,2013-01-22 20:29:00,
2013-01-22 15:34:00,20.0,1.1,30.24,WSW,247,6.0,12.0,43,0.00,,,-99.99,Weather View 32 v60,2013-01-22 20:34:00,
2013-01-22 15:35:00,18.0,1.2,30.28,SW,225,1.0,12.0,47,0.00,,,-99.99,Weather View 32 v60,2013-01-22 20:35:00,
2013-01-22 15:44:00,20.0,1.1,30.25,WSW,247,3.0,12.0,43,0.00,,,-99.99,Weather View 32 v60,2013-01-22 20:44:00,
2013-01-22 15:45:00,18.0,1.2,30.27,SW,225,0.0,12.0,47,0.00,,,-99.99,Weather View 32 v60,2013-01-22 20:45:00,
2013-01-22 15:49:00,19.0,0.2,30.26,WSW,247,3.0,12.0,43,0.00,,,-99.99,Weather View 32 v60,2013-01-22 20:49:00,
2013-01-22 15:55:00,18.0,1.6,30.27,WSW,247,3.0,12.0,48,0.00,,,-99.99,Weather View 32 v60,2013-01-22 20:55:00,
2013-01-22 15:59:00,19.0,0.7,30.27,SW,225,2.0,12.0,44,0.00,,,-99.99,Weather View 32 v60,2013-01-22 20:59:00,
2013-01-22 16:00:00,18.0,1.6,30.27,West,270,2.0,12.0,48,0.00,,,-99.99,Weather View 32 v60,2013-01-22 21:00:00,
2013-01-22 16:09:00,19.0,0.7,30.26,SW,225,8.0,12.0,44,0.00,,,-99.99,Weather View 32 v60,2013-01-22 21:09:00,
2013-01-22 16:14:00,19.0,0.7,30.26,WSW,247,8.0,12.0,44,0.00,,,-99.99,Weather View 32 v60,2013-01-22 21:14:00,
2013-01-22 16:15:00,17.0,1.6,30.27,WSW,247,3.0,12.0,50,0.00,,,-99.99,Weather View 32 v60,2013-01-22 21:15:00,
2013-01-22 16:24:00,19.0,1.2,30.27,WSW,247,5.0,12.0,45,0.00,,,-99.99,Weather View 32 v60,2013-01-22 21:24:00,
2013-01-22 16:29:00,18.0,0.2,30.28,SW,225,6.0,12.0,45,0.00,,,-99.99,Weather View 32 v60,2013-01-22 21:29:00,
2013-01-22 16:34:00,18.0,1.2,30.28,SW,225,1.0,12.0,47,0.00,,,-99.99,Weather View 32 v60,2013-01-22 21:34:00,
2013-01-22 16:39:00,18.0,1.2,30.27,West,270,4.0,12.0,47,0.00,,,-99.99,Weather View 32 v60,2013-01-22 21:39:00,
2013-01-22 16:40:00,17.0,2.0,30.28,SW,225,0.0,10.0,51,0.00,,,-99.99,Weather View 32 v60,2013-01-22 21:40:00,
2013-01-22 16:45:00,16.0,1.9,30.28,WNW,292,0.0,10.0,53,0.00,,,-99.99,Weather View 32 v60,2013-01-22 21:45:00,
2013-01-22 16:49:00,18.0,1.2,30.27,WSW,247,0.0,12.0,47,0.00,,,-99.99,Weather View 32 v60,2013-01-22 21:49:00,
2013-01-22 16:50:00,16.0,2.7,30.28,West,270,0.0,8.0,55,0.00,,,-99.99,Weather View 32 v60,2013-01-22 21:50:00,
2013-01-22 16:55:00,16.0,2.3,30.28,WSW,247,0.0,8.0,54,0.00,,,-99.99,Weather View 32 v60,2013-01-22 21:55:00,
2013-01-22 17:04:00,18.0,2.1,30.27,West,270,0.0,12.0,49,0.00,,,-99.99,Weather View 32 v60,2013-01-22 22:04:00,
2013-01-22 17:09:00,18.0,2.1,30.27,SW,225,4.0,12.0,49,0.00,,,-99.99,Weather View 32 v60,2013-01-22 22:09:00,
2013-01-22 17:10:00,16.0,1.9,30.27,West,270,0.0,8.0,53,0.00,,,-99.99,Weather View 32 v60,2013-01-22 22:10:00,
2013-01-22 17:19:00,18.0,2.5,30.27,WSW,247,0.0,12.0,50,0.00,,,-99.99,Weather View 32 v60,2013-01-22 22:19:00,
2013-01-22 17:29:00,17.0,1.6,30.27,West,270,0.0,10.0,50,0.00,,,-99.99,Weather View 32 v60,2013-01-22 22:29:00,
2013-01-22 17:34:00,17.0,1.6,30.27,NW,315,0.0,10.0,50,0.00,,,-99.99,Weather View 32 v60,2013-01-22 22:34:00,
2013-01-22 17:35:00,15.0,1.7,30.28,WSW,247,0.0,5.0,55,0.00,,,-99.99,Weather View 32 v60,2013-01-22 22:35:00,
2013-01-22 17:59:00,16.0,2.3,30.27,WSW,247,3.0,8.0,54,0.00,,,-99.99,Weather View 32 v60,2013-01-22 22:59:00,
2013-01-22 18:00:00,13.0,1.7,30.29,WSW,247,0.0,5.0,60,0.00,,,-99.99,Weather View 32 v60,2013-01-22 23:00:00,
2013-01-22 18:04:00,16.0,2.3,30.27,WNW,292,0.0,8.0,54,0.00,,,-99.99,Weather View 32 v60,2013-01-22 23:04:00,
2013-01-22 18:14:00,16.0,2.3,30.27,West,270,0.0,8.0,54,0.00,,,-99.99,Weather View 32 v60,2013-01-22 23:14:00,
2013-01-22 18:19:00,16.0,2.7,30.28,WSW,247,0.0,5.0,55,0.00,,,-99.99,Weather View 32 v60,2013-01-22 23:19:00,
2013-01-22 18:29:00,16.0,2.7,30.28,West,270,0.0,5.0,55,0.00,,,-99.99,Weather View 32 v60,2013-01-22 23:29:00,
2013-01-22 18:35:00,12.0,2.5,30.30,NW,315,0.0,1.0,65,0.00,,,-99.99,Weather View 32 v60,2013-01-22 23:35:00,
2013-01-22 18:36:00,15.0,1.7,30.28,WSW,247,0.0,5.0,55,0.00,,,-99.99,Weather View 32 v60,2013-01-22 23:36:00,
2013-01-22 18:40:00,12.0,2.5,30.30,NW,315,0.0,1.0,65,0.00,,,-99.99,Weather View 32 v60,2013-01-22 23:40:00,
2013-01-22 18:44:00,14.0,1.2,30.27,WSW,247,0.0,5.0,56,0.00,,,-99.99,Weather View 32 v60,2013-01-22 23:44:00,
2013-01-22 18:54:00,13.0,1.4,30.27,WSW,247,0.0,5.0,59,0.00,,,-99.99,Weather View 32 v60,2013-01-22 23:54:00,
2013-01-22 19:00:00,11.0,3.1,30.30,NW,315,0.0,1.0,70,0.00,,,-99.99,Weather View 32 v60,2013-01-23 00:00:00,
2013-01-22 19:04:00,13.0,2.8,30.29,West,270,0.0,4.0,63,0.00,,,-99.99,Weather View 32 v60,2013-01-23 00:04:00,
2013-01-22 19:05:00,10.0,2.5,30.30,NW,315,0.0,1.0,71,0.00,,,-99.99,Weather View 32 v60,2013-01-23 00:05:00,
2013-01-22 19:10:00,10.0,2.5,30.30,NW,315,0.0,1.0,71,0.00,,,-99.99,Weather View 32 v60,2013-01-23 00:10:00,
2013-01-22 19:14:00,12.0,1.8,30.30,West,270,0.0,4.0,63,0.00,,,-99.99,Weather View 32 v60,2013-01-23 00:14:00,
2013-01-22 19:19:00,12.0,2.5,30.30,West,270,0.0,4.0,65,0.00,,,-99.99,Weather View 32 v60,2013-01-23 00:19:00,
2013-01-22 19:20:00,10.0,3.1,30.29,NW,315,0.0,1.0,73,0.00,,,-99.99,Weather View 32 v60,2013-01-23 00:20:00,
2013-01-22 19:24:00,12.0,2.5,30.30,NW,315,0.0,1.0,65,0.00,,,-99.99,Weather View 32 v60,2013-01-23 00:24:00,
2013-01-22 19:29:00,12.0,2.5,30.30,NW,315,0.0,1.0,65,0.00,,,-99.99,Weather View 32 v60,2013-01-23 00:29:00,
2013-01-22 19:30:00,10.0,3.7,30.29,NW,315,0.0,0.0,75,0.00,,,-99.99,Weather View 32 v60,2013-01-23 00:30:00,
2013-01-22 19:37:00,12.0,2.5,30.30,NW,315,0.0,1.0,65,0.00,,,-99.99,Weather View 32 v60,2013-01-23 00:37:00,
2013-01-22 19:44:00,11.0,2.2,30.30,NW,315,0.0,1.0,67,0.00,,,-99.99,Weather View 32 v60,2013-01-23 00:44:00,
2013-01-22 19:45:00,10.0,3.4,30.30,NW,315,0.0,0.0,74,0.00,,,-99.99,Weather View 32 v60,2013-01-23 00:45:00,
2013-01-22 19:54:00,11.0,2.8,30.30,NW,315,0.0,1.0,69,0.00,,,-99.99,Weather View 32 v60,2013-01-23 00:54:00,
2013-01-22 20:05:00,9.0,2.7,30.30,NW,315,0.0,0.0,75,0.00,,,-99.99,Weather View 32 v60,2013-01-23 01:05:00,
2013-01-22 20:14:00,10.0,2.8,30.30,NW,315,0.0,1.0,72,0.00,,,-99.99,Weather View 32 v60,2013-01-23 01:14:00,
2013-01-22 20:15:00,9.0,3.0,30.29,NW,315,0.0,0.0,76,0.00,,,-99.99,Weather View 32 v60,2013-01-23 01:15:00,
2013-01-22 20:24:00,10.0,2.8,30.29,NW,315,0.0,0.0,72,0.00,,,-99.99,Weather View 32 v60,2013-01-23 01:24:00,
2013-01-22 20:29:00,10.0,3.7,30.29,NW,315,0.0,0.0,75,0.00,,,-99.99,Weather View 32 v60,2013-01-23 01:29:00,
2013-01-22 20:37:00,10.0,3.1,30.29,NW,315,0.0,0.0,73,0.00,,,-99.99,Weather View 32 v60,2013-01-23 01:37:00,
2013-01-22 20:45:00,9.0,3.5,30.29,NW,315,0.0,0.0,78,0.00,,,-99.99,Weather View 32 v60,2013-01-23 01:45:00,
2013-01-22 20:49:00,9.0,2.1,30.30,NW,315,0.0,0.0,73,0.00,,,-99.99,Weather View 32 v60,2013-01-23 01:49:00,
2013-01-22 20:59:00,10.0,3.4,30.30,NW,315,0.0,0.0,74,0.00,,,-99.99,Weather View 32 v60,2013-01-23 01:59:00,
2013-01-22 21:09:00,9.0,2.7,30.29,NW,315,0.0,0.0,75,0.00,,,-99.99,Weather View 32 v60,2013-01-23 02:09:00,
2013-01-22 21:19:00,9.0,3.0,30.29,NW,315,0.0,0.0,76,0.00,,,-99.99,Weather View 32 v60,2013-01-23 02:19:00,
2013-01-22 21:29:00,9.0,3.0,30.30,NW,315,0.0,0.0,76,0.00,,,-99.99,Weather View 32 v60,2013-01-23 02:29:00,
2013-01-22 21:38:00,9.0,3.5,30.30,NW,315,0.0,0.0,78,0.00,,,-99.99,Weather View 32 v60,2013-01-23 02:38:00,
2013-01-22 21:49:00,9.0,4.1,30.29,NW,315,0.0,0.0,80,0.00,,,-99.99,Weather View 32 v60,2013-01-23 02:49:00,
2013-01-22 21:59:00,11.0,5.5,30.30,WSW,247,0.0,0.0,78,0.00,,,-99.99,Weather View 32 v60,2013-01-23 02:59:00,
2013-01-22 22:09:00,12.0,6.2,30.29,WSW,247,0.0,0.0,77,0.00,,,-99.99,Weather View 32 v60,2013-01-23 03:09:00,
2013-01-22 22:14:00,12.0,6.2,30.29,WSW,247,0.0,0.0,77,0.00,,,-99.99,Weather View 32 v60,2013-01-23 03:14:00,
2013-01-22 22:19:00,13.0,6.6,30.29,WSW,247,0.0,0.0,75,0.00,,,-99.99,Weather View 32 v60,2013-01-23 03:19:00,
2013-01-22 22:29:00,14.0,6.9,30.29,West,270,0.0,0.0,73,0.00,,,-99.99,Weather View 32 v60,2013-01-23 03:29:00,
2013-01-22 22:39:00,14.0,6.6,30.29,WNW,292,0.0,0.0,72,0.00,,,-99.99,Weather View 32 v60,2013-01-23 03:39:00,
2013-01-22 22:44:00,14.0,6.3,30.29,WSW,247,0.0,0.0,71,0.00,,,-99.99,Weather View 32 v60,2013-01-23 03:44:00,
2013-01-22 22:49:00,14.0,6.3,30.29,WSW,247,0.0,0.0,71,0.00,,,-99.99,Weather View 32 v60,2013-01-23 03:49:00,
2013-01-22 22:54:00,14.0,6.3,30.29,WSW,247,0.0,0.0,71,0.00,,,-99.99,Weather View 32 v60,2013-01-23 03:54:00,
2013-01-22 22:59:00,14.0,6.3,30.29,WSW,247,0.0,0.0,71,0.00,,,-99.99,Weather View 32 v60,2013-01-23 03:59:00,
2013-01-22 23:09:00,15.0,7.3,30.29,WSW,247,0.0,0.0,71,0.00,,,-99.99,Weather View 32 v60,2013-01-23 04:09:00,
2013-01-22 23:10:00,15.0,6.0,30.30,NW,315,0.0,4.0,67,0.00,,,-99.99,Weather View 32 v60,2013-01-23 04:10:00,
2013-01-22 23:15:00,15.0,6.0,30.30,West,270,0.0,4.0,67,0.00,,,-99.99,Weather View 32 v60,2013-01-23 04:15:00,
2013-01-22 23:19:00,15.0,6.7,30.30,West,270,0.0,0.0,69,0.00,,,-99.99,Weather View 32 v60,2013-01-23 04:19:00,
2013-01-22 23:20:00,15.0,6.4,30.30,West,270,0.0,4.0,68,0.00,,,-99.99,Weather View 32 v60,2013-01-23 04:20:00,
2013-01-22 23:25:00,15.0,6.0,30.30,West,270,0.0,5.0,67,0.00,,,-99.99,Weather View 32 v60,2013-01-23 04:25:00,
2013-01-22 23:29:00,15.0,6.4,30.29,West,270,0.0,0.0,68,0.00,,,-99.99,Weather View 32 v60,2013-01-23 04:29:00,
2013-01-22 23:30:00,15.0,5.7,30.30,NNW,337,0.0,5.0,66,0.00,,,-99.99,Weather View 32 v60,2013-01-23 04:30:00,
2013-01-22 23:35:00,15.0,6.0,30.30,West,270,0.0,5.0,67,0.00,,,-99.99,Weather View 32 v60,2013-01-23 04:35:00,
2013-01-22 23:39:00,15.0,6.4,30.29,West,270,0.0,3.0,68,0.00,,,-99.99,Weather View 32 v60,2013-01-23 04:39:00,
2013-01-22 23:40:00,14.0,5.1,30.30,WNW,292,0.0,5.0,67,0.00,,,-99.99,Weather View 32 v60,2013-01-23 04:40:00,
2013-01-22 23:45:00,14.0,5.4,30.30,WNW,292,0.0,5.0,68,0.00,,,-99.99,Weather View 32 v60,2013-01-23 04:45:00,
2013-01-22 23:49:00,15.0,6.0,30.30,North,360,0.0,3.0,67,0.00,,,-99.99,Weather View 32 v60,2013-01-23 04:49:00,
2013-01-22 23:50:00,13.0,4.8,30.30,WSW,247,0.0,5.0,69,0.00,,,-99.99,Weather View 32 v60,2013-01-23 04:50:00,
2013-01-22 23:55:00,13.0,5.1,30.30,NW,315,0.0,5.0,70,0.00,,,-99.99,Weather View 32 v60,2013-01-23 04:55:00,
2013-01-22 23:59:00,15.0,5.7,30.30,NW,315,0.0,4.0,66,0.00,,,-99.99,Weather View 32 v60,2013-01-23 04:59:00,